TimeEDT,TemperatureF,Dew PointF,Humidity,Sea Level PressureIn,VisibilityMPH,Wind Direction,Wind SpeedMPH,Gust SpeedMPH,PrecipitationIn,Events,Conditions,WindDirDegrees,DateUTC
12:51 AM,34.0,12.0,40,30.27,10.0,NW,10.4,-,N/A,,Clear,320,2013-04-03 04:51:00
1:51 AM,33.1,12.0,42,30.28,10.0,NW,5.8,-,N/A,,Clear,320,2013-04-03 05:51:00
2:51 AM,30.9,12.0,46,30.28,10.0,NNW,4.6,-,N/A,,Clear,330,2013-04-03 06:51:00
3:51 AM,30.9,12.0,46,30.29,10.0,NW,3.5,-,N/A,,Clear,320,2013-04-03 07:51:00
4:51 AM,28.9,12.0,49,30.31,10.0,WNW,3.5,-,N/A,,Clear,290,2013-04-03 08:51:00
5:51 AM,28.0,12.9,53,30.31,10.0,NNW,3.5,-,N/A,,Clear,340,2013-04-03 09:51:00
6:51 AM,28.0,12.0,51,30.33,10.0,NNW,4.6,-,N/A,,Clear,330,2013-04-03 10:51:00
7:51 AM,27.0,14.0,58,30.34,10.0,North,4.6,-,N/A,,Clear,360,2013-04-03 11:51:00
8:51 AM,30.0,14.0,51,30.36,10.0,North,6.9,-,N/A,,Clear,360,2013-04-03 12:51:00
9:51 AM,34.0,15.1,46,30.42,10.0,North,4.6,-,N/A,,Clear,360,2013-04-03 13:51:00
10:51 AM,35.6,10.4,35,30.40,10.0,Variable,3.5,-,N/A,,Clear,0,2013-04-03 14:51:00
11:51 AM,37.9,10.0,32,30.43,10.0,NW,9.2,-,N/A,,Scattered Clouds,320,2013-04-03 15:51:00
12:51 PM,41.0,12.0,31,30.40,10.0,North,13.8,-,N/A,,Scattered Clouds,350,2013-04-03 16:51:00
1:51 PM,43.0,12.9,30,30.40,10.0,NW,18.4,23.0,N/A,,Scattered Clouds,310,2013-04-03 17:51:00
2:51 PM,44.1,12.0,27,30.38,10.0,North,15.0,23.0,N/A,,Scattered Clouds,360,2013-04-03 18:51:00
3:51 PM,45.0,12.9,27,30.37,10.0,NNW,15.0,25.3,N/A,,Clear,340,2013-04-03 19:51:00
4:51 PM,46.9,12.9,25,30.38,10.0,North,13.8,20.7,N/A,,Scattered Clouds,10,2013-04-03 20:51:00
5:51 PM,46.0,12.0,25,30.39,10.0,NNE,11.5,-,N/A,,Scattered Clouds,20,2013-04-03 21:51:00
6:51 PM,45.0,10.9,25,30.39,10.0,NNE,9.2,-,N/A,,Partly Cloudy,30,2013-04-03 22:51:00
7:51 PM,42.1,12.9,31,30.38,10.0,NE,10.4,-,N/A,,Partly Cloudy,40,2013-04-03 23:51:00
8:51 PM,39.0,12.0,33,30.38,10.0,ENE,9.2,-,N/A,,Clear,60,2013-04-04 00:51:00
9:51 PM,36.0,12.0,37,30.38,10.0,NE,8.1,-,N/A,,Clear,50,2013-04-04 01:51:00
10:51 PM,33.8,12.2,41,30.35,10.0,ENE,5.8,-,N/A,,Clear,70,2013-04-04 02:51:00
11:51 PM,33.1,12.0,42,30.38,10.0,ENE,9.2,-,N/A,,Clear,60,2013-04-04 03:51:00